Time;durP1;ratioP1;P1;durP2;ratioP2;P2;SDS_P1;SDS_P2;PMS_P1;PMS_P2;Temp;Humidity;BMP_temperature;BMP_pressure;BME280_temperature;BME280_humidity;BME280_pressure;Samples;Min_cycle;Max_cycle;Signal;HPM_P1;HPM_P2
2022/10/19 00:03:43;;;;;;;9.63;5.25;;;;;;;7.83;100.00;102947.00;10374960;28;20429;-67
2022/10/19 00:08:43;;;;;;;9.35;5.20;;;;;;;7.74;100.00;102955.84;10374935;28;20045;-67
2022/10/19 00:13:44;;;;;;;9.93;6.55;;;;;;;7.60;100.00;102946.22;10358264;28;20053;-66
2022/10/19 00:18:44;;;;;;;7.70;5.63;;;;;;;7.41;100.00;102943.34;10373485;28;20050;-67
2022/10/19 00:23:45;;;;;;;9.20;5.72;;;;;;;7.30;100.00;102937.97;10374116;28;20049;-67
2022/10/19 00:28:45;;;;;;;5.90;5.20;;;;;;;7.36;100.00;102934.78;10374546;28;20038;-67
2022/10/19 00:33:46;;;;;;;9.05;5.63;;;;;;;7.34;100.00;102934.03;10374698;28;20057;-66
2022/10/19 00:38:46;;;;;;;18.95;6.53;;;;;;;7.25;100.00;102938.38;10372683;28;20129;-67
2022/10/19 00:43:50;;;;;;;12.77;6.25;;;;;;;7.13;100.00;102939.38;10372828;28;20037;-67
2022/10/19 00:48:52;;;;;;;6.25;5.53;;;;;;;7.09;100.00;102937.91;10374122;28;20030;-68
2022/10/19 00:53:52;;;;;;;12.98;6.95;;;;;;;7.14;100.00;102936.53;10372062;28;20061;-67
2022/10/19 00:58:52;;;;;;;16.33;6.63;;;;;;;7.18;100.00;102942.56;10373049;28;20033;-67
2022/10/19 01:03:53;;;;;;;14.45;7.35;;;;;;;7.17;100.00;102936.28;10380701;28;20068;-67
2022/10/19 01:08:53;;;;;;;12.05;5.85;;;;;;;7.18;100.00;102935.31;10381528;28;20042;-66
2022/10/19 01:14:21;;;;;;;17.13;6.22;;;;;;;7.20;100.00;102936.03;10380834;28;20058;-67
2022/10/19 01:20:03;;;;;;;6.18;4.97;;;;;;;7.25;100.00;102930.28;10381951;28;20038;-67
2022/10/19 01:25:09;;;;;;;5.45;4.95;;;;;;;7.29;100.00;102923.66;10379404;28;20034;-66
2022/10/19 01:30:15;;;;;;;6.20;5.70;;;;;;;7.39;100.00;102912.97;10381778;28;20033;-66
2022/10/19 01:35:23;;;;;;;7.53;6.30;;;;;;;7.48;100.00;102912.19;10379449;28;20117;-67
2022/10/19 01:40:27;;;;;;;14.07;5.72;;;;;;;7.45;100.00;102910.63;10381123;28;20036;-66
2022/10/19 01:45:30;;;;;;;21.55;7.05;;;;;;;7.49;100.00;102916.59;10380175;28;20026;-68
2022/10/19 01:50:47;;;;;;;6.15;4.95;;;;;;;7.27;100.00;102908.59;10362489;28;20037;-66
2022/10/19 01:55:49;;;;;;;15.30;5.35;;;;;;;7.16;100.00;102910.31;10363712;28;20030;-66
2022/10/19 02:00:49;;;;;;;9.75;5.90;;;;;;;7.21;100.00;102905.44;10363065;28;20072;-66
2022/10/19 02:05:50;;;;;;;8.88;5.85;;;;;;;7.18;100.00;102900.28;10378659;28;20038;-67
2022/10/19 02:10:50;;;;;;;21.42;6.60;;;;;;;7.23;100.00;102892.66;10377676;28;20049;-67
2022/10/19 02:15:52;;;;;;;18.20;7.45;;;;;;;7.28;100.00;102883.38;10379700;28;20100;-67
2022/10/19 02:20:52;;;;;;;21.60;9.02;;;;;;;7.37;100.00;102882.56;10377951;28;20125;-66
2022/10/19 02:25:52;;;;;;;20.15;8.20;;;;;;;7.36;100.00;102878.19;10380686;28;20038;-67
2022/10/19 02:30:53;;;;;;;15.35;8.02;;;;;;;7.34;100.00;102880.13;10377551;28;20109;-66
2022/10/19 02:35:53;;;;;;;17.50;8.55;;;;;;;7.37;100.00;102866.41;10378775;28;20422;-66
2022/10/19 02:41:06;;;;;;;10.63;8.77;;;;;;;7.45;100.00;102869.31;10377054;28;20037;-67
2022/10/19 02:46:10;;;;;;;12.48;7.22;;;;;;;7.48;100.00;102879.84;10376476;28;20041;-67
2022/10/19 02:51:40;;;;;;;17.70;8.80;;;;;;;7.38;100.00;102873.53;10360427;28;20509;-67
2022/10/19 02:56:40;;;;;;;11.80;10.38;;;;;;;7.32;100.00;102865.94;10359983;28;20034;-67
2022/10/19 03:01:40;;;;;;;21.20;10.55;;;;;;;7.36;100.00;102875.47;10378517;28;20046;-67
2022/10/19 03:06:41;;;;;;;14.95;10.57;;;;;;;7.37;100.00;102866.41;10375867;28;20046;-67
2022/10/19 03:11:41;;;;;;;19.23;9.63;;;;;;;7.37;100.00;102863.72;10377225;28;20092;-67
2022/10/19 03:16:41;;;;;;;12.98;9.15;;;;;;;7.40;100.00;102848.16;10377492;28;20577;-67
2022/10/19 03:21:42;;;;;;;19.27;10.13;;;;;;;7.44;100.00;102848.75;10375506;28;20050;-67
2022/10/19 03:26:42;;;;;;;11.98;10.50;;;;;;;7.49;100.00;102841.13;10375788;28;20042;-68
2022/10/19 03:31:43;;;;;;;23.65;12.07;;;;;;;7.53;100.00;102831.81;10391998;28;20029;-67
2022/10/19 03:36:43;;;;;;;11.25;9.60;;;;;;;7.54;100.00;102836.22;10376245;28;20045;-67
2022/10/19 03:41:43;;;;;;;14.60;12.00;;;;;;;7.53;100.00;102834.50;10376001;28;20100;-67
2022/10/19 03:46:44;;;;;;;16.52;9.93;;;;;;;7.54;100.00;102838.91;10390999;28;20034;-67
2022/10/19 03:51:44;;;;;;;11.32;9.93;;;;;;;7.52;100.00;102843.56;10376130;28;20045;-67
2022/10/19 03:56:44;;;;;;;18.55;12.23;;;;;;;7.51;100.00;102844.56;10375451;28;20366;-68
2022/10/19 04:01:45;;;;;;;11.82;8.73;;;;;;;7.52;100.00;102840.00;10374915;28;20048;-67
2022/10/19 04:06:46;;;;;;;13.15;10.88;;;;;;;7.44;100.00;102844.22;10374485;28;20095;-68
2022/10/19 04:11:47;;;;;;;17.77;12.07;;;;;;;7.36;100.00;102835.06;10390085;28;20037;-68
2022/10/19 04:16:47;;;;;;;13.68;9.88;;;;;;;7.31;100.00;102830.06;10376456;28;20324;-68
2022/10/19 04:21:48;;;;;;;12.52;9.05;;;;;;;7.27;100.00;102822.34;10374779;28;20044;-68
2022/10/19 04:26:50;;;;;;;27.88;10.80;;;;;;;7.27;100.00;102820.50;10373245;28;20129;-67
2022/10/19 04:31:50;;;;;;;14.57;9.75;;;;;;;7.27;100.00;102828.59;10375026;28;20046;-67
2022/10/19 04:36:51;;;;;;;12.65;7.95;;;;;;;7.25;100.00;102838.66;10372904;28;20338;-69
2022/10/19 04:41:52;;;;;;;16.98;8.20;;;;;;;7.28;100.00;102845.66;10373003;28;20117;-67
2022/10/19 04:46:52;;;;;;;15.98;8.05;;;;;;;7.27;100.00;102839.38;10375696;28;20038;-68
2022/10/19 04:51:53;;;;;;;11.45;8.35;;;;;;;7.30;100.00;102843.66;10372799;28;20073;-70
2022/10/19 04:56:53;;;;;;;17.88;7.53;;;;;;;7.34;100.00;102845.09;10372353;28;20030;-70
2022/10/19 05:01:54;;;;;;;8.55;6.72;;;;;;;7.33;100.00;102843.41;10357573;28;20493;-71
2022/10/19 05:06:54;;;;;;;10.90;7.25;;;;;;;7.28;100.00;102861.81;10373813;28;20037;-70
2022/10/19 05:11:54;;;;;;;14.35;7.88;;;;;;;7.23;100.00;102848.69;10374000;28;20436;-68
2022/10/19 05:16:55;;;;;;;11.63;7.63;;;;;;;7.19;100.00;102842.72;10371340;28;20084;-68
2022/10/19 05:21:55;;;;;;;9.23;7.07;;;;;;;7.17;100.00;102847.38;10374409;28;20437;-67
2022/10/19 05:26:55;;;;;;;17.42;8.32;;;;;;;7.10;100.00;102848.88;10373494;28;20143;-69
2022/10/19 05:31:56;;;;;;;11.07;7.80;;;;;;;7.07;100.00;102841.03;10372953;28;20034;-70
2022/10/19 05:36:56;;;;;;;15.18;7.65;;;;;;;7.07;100.00;102840.19;10355188;28;20034;-69
2022/10/19 05:41:57;;;;;;;10.15;7.35;;;;;;;7.08;100.00;102833.81;10372881;28;20371;-69
2022/10/19 05:46:57;;;;;;;12.73;9.43;;;;;;;7.05;100.00;102823.28;10376536;28;20030;-69
2022/10/19 05:51:57;;;;;;;7.70;7.03;;;;;;;7.10;100.00;102810.31;10379999;28;20076;-69
2022/10/19 05:56:58;;;;;;;14.23;7.57;;;;;;;7.12;100.00;102814.59;10379767;28;20030;-68
2022/10/19 06:01:58;;;;;;;15.10;7.50;;;;;;;7.16;100.00;102805.25;10378453;28;20049;-69
2022/10/19 06:06:59;;;;;;;12.95;6.53;;;;;;;7.14;100.00;102793.72;10345575;28;20030;-69
2022/10/19 06:12:00;;;;;;;13.07;8.68;;;;;;;7.14;100.00;102791.03;10361106;28;20092;-69
2022/10/19 06:17:00;;;;;;;16.17;6.50;;;;;;;7.16;100.00;102794.47;10379191;28;20485;-69
2022/10/19 06:22:01;;;;;;;12.23;6.53;;;;;;;7.19;100.00;102796.06;10378184;28;20073;-70
2022/10/19 06:27:01;;;;;;;15.35;6.80;;;;;;;7.32;100.00;102795.88;10377749;28;20038;-68
2022/10/19 06:32:02;;;;;;;11.68;6.82;;;;;;;7.74;100.00;102803.97;10376646;28;20453;-68
2022/10/19 06:37:02;;;;;;;8.10;5.75;;;;;;;8.14;100.00;102802.22;10377270;28;20125;-68
2022/10/19 06:42:02;;;;;;;7.00;6.32;;;;;;;8.56;100.00;102804.84;10378257;28;20042;-69
2022/10/19 06:47:03;;;;;;;20.05;7.72;;;;;;;9.11;100.00;102819.72;10378063;28;20112;-68
2022/10/19 06:52:04;;;;;;;23.55;8.00;;;;;;;9.37;100.00;102812.75;10378615;28;20042;-69
2022/10/19 06:57:06;;;;;;;7.00;6.30;;;;;;;9.24;100.00;102801.38;10375944;28;20046;-70
2022/10/19 07:02:09;;;;;;;12.77;6.03;;;;;;;9.13;100.00;102809.63;10376785;28;20034;-69
2022/10/19 07:07:10;;;;;;;12.10;5.95;;;;;;;9.82;100.00;102803.16;10359236;28;20066;-69
2022/10/19 07:12:10;;;;;;;12.55;5.53;;;;;;;10.09;100.00;102787.00;10376835;28;20083;-69
2022/10/19 07:17:10;;;;;;;7.22;6.57;;;;;;;9.99;100.00;102803.28;10378097;28;20058;-69
2022/10/19 07:22:11;;;;;;;9.40;4.78;;;;;;;10.24;100.00;102800.88;10378054;28;20079;-69
2022/10/19 07:27:11;;;;;;;8.93;5.13;;;;;;;10.58;100.00;102803.06;10376745;28;20045;-69
2022/10/19 07:32:12;;;;;;;9.43;6.10;;;;;;;10.68;100.00;102803.84;10377133;28;20057;-69
2022/10/19 07:37:12;;;;;;;6.20;5.65;;;;;;;11.14;100.00;102800.13;10376081;28;20334;-69
2022/10/19 07:42:12;;;;;;;11.43;5.20;;;;;;;11.69;100.00;102807.19;10376098;28;20038;-69
2022/10/19 07:47:13;;;;;;;7.53;5.68;;;;;;;12.00;100.00;102793.19;10375682;28;20038;-69
2022/10/19 07:52:13;;;;;;;5.60;3.85;;;;;;;12.34;100.00;102798.63;10375477;28;20038;-69
2022/10/19 07:57:14;;;;;;;9.02;3.85;;;;;;;12.56;100.00;102787.16;10373264;28;20153;-69
2022/10/19 08:02:15;;;;;;;3.20;2.90;;;;;;;12.66;100.00;102781.56;10357769;28;20034;-69
2022/10/19 08:07:16;;;;;;;4.45;3.47;;;;;;;12.96;100.00;102766.53;10374057;28;20092;-68
2022/10/19 08:12:16;;;;;;;5.40;3.80;;;;;;;13.08;100.00;102753.47;10375193;28;20037;-68
2022/10/19 08:17:16;;;;;;;4.45;3.35;;;;;;;13.48;100.00;102751.78;10374417;28;20141;-70
2022/10/19 08:22:17;;;;;;;16.55;4.03;;;;;;;13.42;100.00;102747.03;10374753;28;20042;-68
2022/10/19 08:27:17;;;;;;;4.40;2.75;;;;;;;13.54;100.00;102742.94;10374346;28;20386;-67
2022/10/19 08:32:17;;;;;;;21.15;5.82;;;;;;;13.83;100.00;102750.53;10374794;28;20121;-68
2022/10/19 08:37:18;;;;;;;5.00;3.10;;;;;;;13.91;100.00;102752.38;10372617;28;20481;-68
2022/10/19 08:42:21;;;;;;;6.53;3.03;;;;;;;14.23;100.00;102743.28;10372610;28;20049;-69
2022/10/19 08:47:39;;;;;;;8.20;1.85;;;;;;;14.20;100.00;102738.19;10340260;28;20482;-68
2022/10/19 08:52:40;;;;;;;5.40;3.58;;;;;;;14.16;100.00;102754.00;10374145;28;20076;-68
2022/10/19 08:58:04;;;;;;;1.85;1.77;;;;;;;14.31;100.00;102740.50;10356423;28;20057;-67
2022/10/19 09:03:30;;;;;;;8.13;2.63;;;;;;;14.67;100.00;102739.16;10371268;28;20049;-67
2022/10/19 09:08:31;;;;;;;3.70;2.90;;;;;;;14.63;100.00;102730.47;10372081;28;20026;-67
2022/10/19 09:13:44;;;;;;;2.35;2.15;;;;;;;14.95;100.00;102737.59;10371596;28;20050;-67
2022/10/19 09:18:45;;;;;;;4.05;2.13;;;;;;;14.97;100.00;102757.38;10372423;28;20480;-67
2022/10/19 09:23:59;;;;;;;8.35;2.85;;;;;;;15.00;100.00;102737.91;10379334;28;20045;-67
2022/10/19 09:29:45;;;;;;;11.57;1.58;;;;;;;14.82;100.00;102742.81;10364498;28;20454;-66
2022/10/19 09:35:01;;;;;;;5.60;2.85;;;;;;;15.05;100.00;102730.00;10284831;28;20035;-67
2022/10/19 09:40:01;;;;;;;4.63;2.05;;;;;;;14.93;100.00;102717.81;10341549;28;20046;-67
2022/10/19 09:45:12;;;;;;;2.88;1.50;;;;;;;14.60;100.00;102723.50;10380471;28;20445;-67
2022/10/19 09:50:25;;;;;;;1.88;1.75;;;;;;;14.31;100.00;102691.44;10363478;28;20045;-67
2022/10/19 09:55:27;;;;;;;1.38;1.27;;;;;;;14.50;100.00;102684.69;10379341;28;20040;-67
2022/10/19 10:00:33;;;;;;;2.33;2.13;;;;;;;14.83;100.00;102674.44;10378680;28;20057;-68
2022/10/19 10:05:37;;;;;;;4.03;1.30;;;;;;;14.37;100.00;102670.81;10379847;28;20462;-67
2022/10/19 10:10:41;;;;;;;2.38;1.65;;;;;;;14.38;100.00;102672.50;10379363;28;20057;-66
2022/10/19 10:15:49;;;;;;;1.50;1.40;;;;;;;14.73;100.00;102660.19;10378156;28;20046;-66
2022/10/19 10:21:00;;;;;;;8.93;1.25;;;;;;;14.64;100.00;102643.06;10363024;28;20060;-66
2022/10/19 10:26:00;;;;;;;4.72;2.15;;;;;;;14.99;100.00;102650.78;10378352;28;20417;-66
2022/10/19 10:31:02;;;;;;;1.30;1.30;;;;;;;15.61;100.00;102646.94;10376611;28;20176;-67
2022/10/19 10:36:05;;;;;;;1.58;1.48;;;;;;;15.75;100.00;102622.34;10376838;28;20355;-68
2022/10/19 10:41:16;;;;;;;7.85;1.63;;;;;;;15.46;100.00;102625.06;10376614;28;20036;-67
2022/10/19 10:46:23;;;;;;;1.88;1.77;;;;;;;15.32;100.00;102619.41;10360285;28;20026;-67
2022/10/19 10:51:44;;;;;;;5.05;2.13;;;;;;;15.48;100.00;102606.63;10377767;28;20367;-68
2022/10/19 10:56:56;;;;;;;3.75;1.88;;;;;;;16.01;100.00;102612.78;10346568;28;20061;-66
2022/10/19 11:02:02;;;;;;;4.90;1.35;;;;;;;15.75;100.00;102608.69;10376406;28;20034;-66
2022/10/19 11:07:11;;;;;;;5.32;2.25;;;;;;;16.11;100.00;102617.97;10376719;28;20034;-67
2022/10/19 11:12:12;;;;;;;2.38;1.55;;;;;;;16.12;100.00;102611.47;10359615;28;20069;-66
2022/10/19 11:17:32;;;;;;;3.88;2.45;;;;;;;16.13;100.00;102588.56;10375263;28;20068;-66
2022/10/19 11:22:39;;;;;;;1.48;1.45;;;;;;;16.30;100.00;102579.06;10375494;28;20045;-66
2022/10/19 11:28:01;;;;;;;1.88;1.77;;;;;;;16.57;100.00;102563.78;10376018;28;20057;-67
2022/10/19 11:33:22;;;;;;;1.77;1.67;;;;;;;16.34;100.00;102558.50;10375915;28;20038;-67
2022/10/19 11:38:32;;;;;;;2.35;2.15;;;;;;;16.63;93.92;102553.94;10361226;28;20105;-67
2022/10/19 11:43:57;;;;;;;2.30;1.80;;;;;;;16.54;100.00;102574.25;10376096;28;20029;-67
2022/10/19 11:49:12;;;;;;;2.97;2.78;;;;;;;16.65;100.00;102527.22;10375181;28;20026;-66
2022/10/19 11:54:40;;;;;;;2.08;1.88;;;;;;;17.11;100.00;102524.84;10374235;28;20449;-67
2022/10/19 12:00:02;;;;;;;7.32;2.97;;;;;;;16.81;89.74;102498.75;10375267;28;20097;-67
2022/10/19 12:05:04;;;;;;;5.22;2.47;;;;;;;16.39;89.24;102495.88;10374464;28;20042;-67
2022/10/19 12:10:15;;;;;;;2.10;1.27;;;;;;;16.28;89.20;102488.22;10357443;28;20041;-68
2022/10/19 12:15:27;;;;;;;6.05;2.47;;;;;;;16.35;84.96;102472.72;10357072;28;20405;-67
2022/10/19 12:20:36;;;;;;;2.00;1.40;;;;;;;16.38;90.86;102474.22;10373190;28;20525;-67
2022/10/19 12:25:37;;;;;;;4.13;1.73;;;;;;;16.43;92.22;102478.06;10357119;28;20480;-68
2022/10/19 12:30:38;;;;;;;2.92;2.40;;;;;;;16.45;92.30;102465.00;10357305;28;20033;-68
2022/10/19 12:36:03;;;;;;;2.30;2.00;;;;;;;16.58;92.96;102447.84;10374543;28;20033;-68
2022/10/19 12:41:17;;;;;;;4.40;2.10;;;;;;;16.47;87.73;102440.22;10374738;28;20062;-67
2022/10/19 12:46:53;;;;;;;3.65;1.98;;;;;;;16.38;87.23;102439.50;10357412;28;20030;-67
2022/10/19 12:51:54;;;;;;;4.15;2.08;;;;;;;15.94;89.90;102426.94;10323344;28;20034;-68
2022/10/19 12:56:56;;;;;;;8.52;2.92;;;;;;;15.72;90.58;102428.81;10360155;28;20053;-67
2022/10/19 13:01:56;;;;;;;3.97;2.03;;;;;;;15.78;91.80;102422.56;10381205;28;20042;-67
2022/10/19 13:06:57;;;;;;;7.88;2.08;;;;;;;16.06;92.00;102410.03;10363601;28;20069;-67
2022/10/19 13:12:12;;;;;;;1.98;1.88;;;;;;;16.33;94.02;102411.06;10380746;28;20076;-67
2022/10/19 13:17:37;;;;;;;4.53;2.10;;;;;;;16.56;92.88;102402.59;10383071;28;20046;-67
2022/10/19 13:22:37;;;;;;;6.85;1.85;;;;;;;16.37;87.43;102379.53;10382799;28;20042;-67
2022/10/19 13:27:37;;;;;;;4.05;1.75;;;;;;;16.03;90.98;102379.31;10363910;28;20124;-67
2022/10/19 13:32:42;;;;;;;3.13;2.70;;;;;;;16.25;90.23;102368.34;10380963;28;20394;-67
2022/10/19 13:37:42;;;;;;;1.92;1.80;;;;;;;16.35;91.34;102355.16;10379066;28;20026;-67
2022/10/19 13:42:43;;;;;;;2.28;2.13;;;;;;;16.47;87.52;102359.03;10379240;28;20041;-67
2022/10/19 13:47:43;;;;;;;4.15;2.17;;;;;;;16.36;84.26;102343.16;10378945;28;20034;-68
2022/10/19 13:52:56;;;;;;;2.65;1.80;;;;;;;16.01;86.44;102358.69;10378777;28;20212;-68
2022/10/19 13:58:12;;;;;;;2.80;1.88;;;;;;;15.93;87.50;102340.56;10379479;28;20034;-66
2022/10/19 14:03:27;;;;;;;3.45;2.72;;;;;;;15.99;90.77;102342.50;10380210;28;20041;-68
2022/10/19 14:08:40;;;;;;;6.32;2.67;;;;;;;15.90;87.81;102353.78;10377968;28;20032;-67
2022/10/19 14:13:40;;;;;;;9.20;2.38;;;;;;;15.50;89.17;102337.81;10378779;28;20050;-66
2022/10/19 14:18:41;;;;;;;3.08;2.03;;;;;;;15.30;86.11;102337.63;10378675;28;20037;-67
2022/10/19 14:23:41;;;;;;;7.57;2.97;;;;;;;15.24;89.35;102327.47;10379124;28;20038;-67
2022/10/19 14:28:42;;;;;;;2.92;2.42;;;;;;;15.14;86.99;102323.38;10377503;28;20477;-67
2022/10/19 14:33:45;;;;;;;1.92;1.83;;;;;;;14.59;87.19;102312.88;10360620;28;20030;-67
2022/10/19 14:38:45;;;;;;;11.45;2.13;;;;;;;14.35;89.75;102299.50;10345691;28;20068;-68
2022/10/19 14:43:46;;;;;;;2.40;1.95;;;;;;;14.32;93.57;102297.97;10376693;28;20065;-67
2022/10/19 14:48:47;;;;;;;5.55;2.45;;;;;;;13.87;89.34;102291.66;10377914;28;20470;-68
2022/10/19 14:53:50;;;;;;;3.70;2.65;;;;;;;13.79;92.03;102289.03;10376935;28;20078;-66
2022/10/19 14:59:25;;;;;;;1.90;1.80;;;;;;;13.92;92.47;102275.63;10344060;28;20416;-66
2022/10/19 15:04:28;;;;;;;6.50;2.55;;;;;;;13.67;92.69;102282.34;10360698;28;20118;-68
2022/10/19 15:09:30;;;;;;;2.33;1.58;;;;;;;13.44;92.46;102275.06;10377945;28;20037;-67
2022/10/19 15:14:31;;;;;;;8.20;2.58;;;;;;;13.23;91.93;102269.41;10375788;28;20052;-67
2022/10/19 15:19:37;;;;;;;2.90;1.98;;;;;;;13.07;94.60;102270.38;10376723;28;20069;-67
2022/10/19 15:24:39;;;;;;;4.35;2.70;;;;;;;12.96;95.53;102240.88;10376490;28;20034;-68
2022/10/19 15:29:39;;;;;;;4.93;2.70;;;;;;;12.87;96.23;102234.66;10375401;28;20390;-68
2022/10/19 15:34:40;;;;;;;5.78;2.10;;;;;;;12.71;96.05;102227.44;10376266;28;20029;-67
2022/10/19 15:39:40;;;;;;;2.13;1.92;;;;;;;12.63;96.80;102213.88;10374591;28;20036;-66
2022/10/19 15:44:42;;;;;;;3.85;2.08;;;;;;;12.58;99.15;102205.44;10375057;28;20478;-67
2022/10/19 15:49:43;;;;;;;3.35;2.03;;;;;;;12.52;100.00;102200.72;10358270;28;20374;-66
2022/10/19 15:54:46;;;;;;;6.50;1.50;;;;;;;12.47;100.00;102189.53;10375251;28;20033;-67
2022/10/19 15:59:47;;;;;;;2.78;2.03;;;;;;;12.39;100.00;102184.16;10374824;28;20030;-67
2022/10/19 16:04:48;;;;;;;3.17;1.52;;;;;;;12.38;99.41;102191.47;10375511;28;20029;-67
2022/10/19 16:09:48;;;;;;;13.50;4.55;;;;;;;12.33;99.20;102183.00;10374123;28;20049;-68
2022/10/19 16:14:48;;;;;;;4.65;2.17;;;;;;;12.25;100.00;102170.31;10374152;28;20449;-68
2022/10/19 16:19:49;;;;;;;5.53;2.40;;;;;;;12.18;99.42;102177.44;10374462;28;20037;-66
2022/10/19 16:24:49;;;;;;;6.95;2.40;;;;;;;12.12;100.00;102153.72;10373835;28;20135;-67
2022/10/19 16:29:50;;;;;;;1.88;1.60;;;;;;;12.03;100.00;102146.66;10372818;28;20084;-67
2022/10/19 16:34:50;;;;;;;5.50;3.55;;;;;;;11.95;100.00;102119.53;10373108;28;20034;-67
2022/10/19 16:39:50;;;;;;;3.95;2.65;;;;;;;11.93;100.00;102133.28;10373238;28;20049;-67
2022/10/19 16:44:53;;;;;;;12.45;2.42;;;;;;;11.88;99.93;102142.97;10374614;28;20033;-68
2022/10/19 16:49:57;;;;;;;2.10;1.95;;;;;;;11.83;100.00;102125.31;10374710;28;20469;-67
2022/10/19 16:54:58;;;;;;;8.45;2.42;;;;;;;11.81;100.00;102118.38;10373194;28;20068;-66
2022/10/19 16:59:58;;;;;;;5.55;2.58;;;;;;;11.76;100.00;102115.34;10373692;28;20113;-68
2022/10/19 17:04:59;;;;;;;3.15;1.95;;;;;;;11.73;100.00;102112.97;10373433;28;20029;-67
2022/10/19 17:09:59;;;;;;;6.10;1.88;;;;;;;11.74;100.00;102096.53;10372439;28;20065;-66
2022/10/19 17:14:59;;;;;;;7.97;3.33;;;;;;;11.70;100.00;102106.03;10373205;28;20064;-67
2022/10/19 17:20:00;;;;;;;7.13;2.35;;;;;;;11.67;100.00;102125.38;10372919;28;20417;-67
2022/10/19 17:25:00;;;;;;;3.75;2.78;;;;;;;11.67;100.00;102133.50;10374801;28;20034;-67
2022/10/19 17:30:01;;;;;;;5.53;2.53;;;;;;;11.66;100.00;102126.41;10371877;28;20026;-67
2022/10/19 17:35:01;;;;;;;4.20;2.17;;;;;;;11.65;100.00;102135.56;10371812;28;20038;-67
2022/10/19 17:40:02;;;;;;;7.43;2.70;;;;;;;11.58;100.00;102132.72;10373493;28;20119;-68
2022/10/19 17:45:02;;;;;;;4.05;2.88;;;;;;;11.53;100.00;102126.94;10378428;28;20528;-67
2022/10/19 17:50:03;;;;;;;2.13;1.90;;;;;;;11.44;100.00;102133.41;10380377;28;20109;-67
2022/10/19 17:55:04;;;;;;;2.90;2.53;;;;;;;11.40;100.00;102132.06;10362565;28;20034;-68
2022/10/19 18:00:06;;;;;;;9.73;2.35;;;;;;;11.32;100.00;102121.22;10379278;28;20046;-68
2022/10/19 18:05:06;;;;;;;5.60;2.35;;;;;;;11.24;100.00;102122.09;10380209;28;20038;-67
2022/10/19 18:10:07;;;;;;;6.72;3.35;;;;;;;11.10;100.00;102109.22;10379688;28;20038;-66
2022/10/19 18:15:08;;;;;;;8.40;3.60;;;;;;;10.93;100.00;102106.53;10379098;28;20064;-66
2022/10/19 18:20:08;;;;;;;3.90;3.50;;;;;;;10.92;100.00;102107.56;10379083;28;20037;-66
2022/10/19 18:25:09;;;;;;;10.82;4.28;;;;;;;10.82;100.00;102084.38;10378339;28;20034;-66
2022/10/19 18:30:10;;;;;;;14.00;4.13;;;;;;;10.73;100.00;102082.69;10379526;28;20034;-67
2022/10/19 18:35:10;;;;;;;6.57;4.63;;;;;;;10.71;100.00;102066.56;10377775;28;20046;-67
2022/10/19 18:40:11;;;;;;;12.25;5.35;;;;;;;10.63;100.00;102075.56;10379490;28;20069;-67
2022/10/19 18:45:11;;;;;;;4.30;3.38;;;;;;;10.55;100.00;102072.00;10378325;28;20037;-67
2022/10/19 18:50:12;;;;;;;5.88;4.28;;;;;;;10.56;100.00;102044.75;10378481;28;20061;-68
2022/10/19 18:55:12;;;;;;;4.95;3.15;;;;;;;10.55;100.00;102042.19;10378576;28;20422;-67
2022/10/19 19:00:13;;;;;;;6.47;4.55;;;;;;;10.42;100.00;102021.88;10377090;28;20494;-67
2022/10/19 19:05:13;;;;;;;6.40;3.83;;;;;;;10.40;100.00;102017.66;10375846;28;20045;-67
2022/10/19 19:10:14;;;;;;;5.18;3.72;;;;;;;10.35;100.00;102001.94;10375641;28;20064;-67
2022/10/19 19:15:15;;;;;;;4.90;4.25;;;;;;;10.32;100.00;102004.13;10359352;28;20053;-67
2022/10/19 19:20:15;;;;;;;8.30;5.07;;;;;;;10.28;100.00;102000.06;10377033;28;20373;-67
2022/10/19 19:25:16;;;;;;;5.22;3.92;;;;;;;10.23;100.00;101993.25;10375878;28;20121;-68
2022/10/19 19:30:16;;;;;;;6.10;4.90;;;;;;;10.19;100.00;101985.66;10376378;28;20030;-66
2022/10/19 19:35:17;;;;;;;12.85;5.43;;;;;;;10.20;100.00;101973.78;10376537;28;20522;-67
2022/10/19 19:40:17;;;;;;;4.78;3.58;;;;;;;10.09;100.00;101974.16;10375562;28;20030;-67
2022/10/19 19:45:17;;;;;;;3.17;2.97;;;;;;;10.05;100.00;101967.34;10374439;28;20370;-66
2022/10/19 19:50:18;;;;;;;13.02;4.18;;;;;;;9.99;100.00;101968.91;10375602;28;20073;-66
2022/10/19 19:55:18;;;;;;;5.78;4.63;;;;;;;9.98;100.00;101976.13;10375707;28;20026;-66
2022/10/19 20:00:22;;;;;;;8.77;4.78;;;;;;;9.91;100.00;101950.78;10374372;28;20474;-66
2022/10/19 20:05:23;;;;;;;8.75;5.00;;;;;;;9.85;100.00;101959.56;10375633;28;20112;-66
2022/10/19 20:10:23;;;;;;;8.75;5.07;;;;;;;9.80;100.00;101943.00;10374459;28;20193;-66
2022/10/19 20:15:23;;;;;;;5.93;4.65;;;;;;;9.73;100.00;101939.25;10375942;28;20144;-66
2022/10/19 20:20:24;;;;;;;8.93;5.28;;;;;;;9.68;100.00;101955.13;10356957;28;20046;-65
2022/10/19 20:25:24;;;;;;;5.63;4.57;;;;;;;9.66;100.00;101954.44;10374053;28;20092;-67
2022/10/19 20:30:25;;;;;;;8.73;4.85;;;;;;;9.57;100.00;101939.22;10373823;28;20030;-66
2022/10/19 20:35:25;;;;;;;10.20;5.93;;;;;;;9.49;100.00;101919.25;10374346;28;20358;-65
2022/10/19 20:40:26;;;;;;;10.07;4.55;;;;;;;9.42;100.00;101917.41;10373825;28;20038;-66
2022/10/19 20:45:26;;;;;;;6.97;4.40;;;;;;;9.35;100.00;101916.34;10374290;28;20037;-68
2022/10/19 20:50:27;;;;;;;4.80;4.38;;;;;;;9.32;100.00;101912.13;10374073;28;20030;-67
2022/10/19 20:55:27;;;;;;;8.90;4.82;;;;;;;9.29;100.00;101909.75;10374362;28;20045;-66
2022/10/19 21:00:27;;;;;;;7.18;6.38;;;;;;;9.24;100.00;101902.13;10373399;28;20045;-67
2022/10/19 21:05:28;;;;;;;5.40;4.15;;;;;;;9.20;100.00;101898.06;10373713;28;20038;-67
2022/10/19 21:10:28;;;;;;;8.30;6.28;;;;;;;9.22;100.00;101901.47;10371599;28;20104;-66
2022/10/19 21:15:29;;;;;;;11.48;5.45;;;;;;;9.23;100.00;101891.50;10372207;28;20154;-66
2022/10/19 21:20:29;;;;;;;14.15;5.93;;;;;;;9.17;100.00;101887.56;10381012;28;20034;-67
2022/10/19 21:25:30;;;;;;;7.35;5.75;;;;;;;9.19;100.00;101887.41;10379965;28;20065;-68
2022/10/19 21:30:30;;;;;;;5.93;4.57;;;;;;;9.15;100.00;101881.47;10381624;28;20417;-66
2022/10/19 21:35:31;;;;;;;6.45;5.88;;;;;;;9.13;100.00;101880.81;10381096;28;20037;-67
2022/10/19 21:40:34;;;;;;;8.80;5.05;;;;;;;9.12;100.00;101862.06;10363922;28;20030;-66
2022/10/19 21:45:36;;;;;;;6.60;5.40;;;;;;;9.04;100.00;101839.41;10378973;28;20123;-66
2022/10/19 21:50:36;;;;;;;11.70;5.35;;;;;;;9.07;100.00;101860.69;10363031;28;20042;-67
2022/10/19 21:55:37;;;;;;;5.82;4.03;;;;;;;9.03;100.00;101836.84;10380064;28;20378;-67
2022/10/19 22:00:37;;;;;;;7.80;5.55;;;;;;;9.03;100.00;101826.91;10379846;28;20129;-66
2022/10/19 22:05:38;;;;;;;9.30;4.65;;;;;;;9.00;100.00;101821.84;10380061;28;20081;-66
2022/10/19 22:10:38;;;;;;;6.35;5.05;;;;;;;8.96;100.00;101823.16;10378203;28;20415;-66
2022/10/19 22:15:39;;;;;;;6.28;5.68;;;;;;;8.96;100.00;101812.34;10379221;28;20053;-67
2022/10/19 22:20:39;;;;;;;7.47;4.70;;;;;;;8.95;100.00;101805.28;10378666;28;20477;-67
2022/10/19 22:25:40;;;;;;;12.25;5.53;;;;;;;8.90;100.00;101802.22;10380118;28;20469;-66
2022/10/19 22:30:43;;;;;;;5.88;5.28;;;;;;;8.89;100.00;101792.41;10378417;28;20037;-66
2022/10/19 22:35:55;;;;;;;10.48;5.55;;;;;;;8.93;100.00;101798.34;10377751;28;20466;-66
2022/10/19 22:46:51;;;;;;;8.50;5.78;;;;;;;8.89;100.00;101767.28;10378782;28;20386;-67
2022/10/19 22:51:52;;;;;;;6.75;6.10;;;;;;;8.84;100.00;101755.13;10376938;28;20066;-66
2022/10/19 22:56:52;;;;;;;12.18;8.30;;;;;;;8.87;100.00;101750.38;10360262;28;20589;-67
2022/10/19 23:01:52;;;;;;;15.15;6.47;;;;;;;8.83;100.00;101750.72;10376384;28;20096;-67
2022/10/19 23:06:53;;;;;;;7.15;5.22;;;;;;;8.82;100.00;101759.81;10376495;28;20180;-67
2022/10/19 23:11:54;;;;;;;8.75;6.82;;;;;;;8.85;100.00;101750.56;10376007;28;20045;-66